createdAt,value
2023-01-29T00:01:23.885Z,6.07
2023-01-29T00:06:26.213Z,7.07
2023-01-29T00:11:28.451Z,5.50
2023-01-29T00:16:30.630Z,6.32
2023-01-29T00:21:33.451Z,6.63
2023-01-29T00:26:35.586Z,5.97
2023-01-29T00:31:37.807Z,6.28
2023-01-29T00:36:44.973Z,4.43
2023-01-29T00:42:23.071Z,5.50
2023-01-29T00:47:33.602Z,6.30
2023-01-29T00:52:36.819Z,5.22
2023-01-29T00:57:39.315Z,6.10
2023-01-29T01:02:59.679Z,7.50
2023-01-29T01:08:01.687Z,6.80
2023-01-29T01:13:06.891Z,8.93
2023-01-29T01:18:08.986Z,8.18
2023-01-29T01:23:11.238Z,7.20
2023-01-29T01:28:13.683Z,6.40
2023-01-29T01:33:15.750Z,6.40
2023-01-29T01:38:17.880Z,5.40
2023-01-29T01:43:20.022Z,5.93
2023-01-29T01:48:26.703Z,6.00
2023-01-29T01:53:38.723Z,5.80
2023-01-29T01:58:45.373Z,6.75
2023-01-29T02:04:12.491Z,5.90
2023-01-29T02:09:34.743Z,6.75
2023-01-29T02:14:41.471Z,5.57
2023-01-29T02:20:11.567Z,6.38
2023-01-29T02:25:44.550Z,6.40
2023-01-29T02:30:58.439Z,6.45
2023-01-29T02:36:09.812Z,6.82
2023-01-29T02:41:31.913Z,6.63
2023-01-29T02:46:45.527Z,7.20
2023-01-29T02:51:56.012Z,6.65
2023-01-29T02:57:07.620Z,5.75
2023-01-29T03:02:16.624Z,6.13
2023-01-29T03:07:42.410Z,5.93
2023-01-29T03:13:06.403Z,5.00
2023-01-29T03:18:17.186Z,5.32
2023-01-29T03:23:46.895Z,6.22
2023-01-29T03:29:09.921Z,6.40
2023-01-29T03:34:34.616Z,6.20
2023-01-29T03:39:37.628Z,5.72
2023-01-29T03:45:08.567Z,6.00
2023-01-29T03:50:29.976Z,6.25
2023-01-29T03:55:47.175Z,5.43
2023-01-29T04:00:57.303Z,6.20
2023-01-29T04:06:09.980Z,6.38
2023-01-29T04:11:22.286Z,5.68
2023-01-29T04:16:31.931Z,5.00
2023-01-29T04:21:50.507Z,6.38
2023-01-29T04:27:05.634Z,5.90
2023-01-29T04:32:14.015Z,6.37
2023-01-29T04:37:30.523Z,7.10
2023-01-29T04:42:49.511Z,6.35
2023-01-29T04:48:32.246Z,5.57
2023-01-29T04:53:58.078Z,5.07
2023-01-29T04:59:07.559Z,6.20
2023-01-29T05:04:13.389Z,6.25
2023-01-29T05:14:21.007Z,5.97
2023-01-29T05:19:23.061Z,5.90
2023-01-29T05:24:26.806Z,6.65
2023-01-29T05:29:29.068Z,7.10
2023-01-29T05:34:31.143Z,6.22
2023-01-29T05:39:33.330Z,5.10
2023-01-29T05:44:35.368Z,5.30
2023-01-29T05:49:38.793Z,7.20
2023-01-29T05:54:40.925Z,5.38
2023-01-29T05:59:42.955Z,5.50
2023-01-29T06:04:44.999Z,6.10
2023-01-29T06:09:47.023Z,6.43
2023-01-29T06:14:49.025Z,6.28
2023-01-29T06:19:51.023Z,6.85
2023-01-29T06:24:53.046Z,7.07
2023-01-29T06:29:55.076Z,6.10
2023-01-29T06:34:57.074Z,6.93
2023-01-29T06:39:59.099Z,6.72
2023-01-29T06:45:01.113Z,6.93
2023-01-29T06:50:03.724Z,6.38
2023-01-29T06:55:06.501Z,6.35
2023-01-29T07:00:09.960Z,7.65
2023-01-29T07:05:11.960Z,7.88
2023-01-29T07:10:14.178Z,7.20
2023-01-29T07:15:20.289Z,7.03
2023-01-29T07:20:22.284Z,6.35
2023-01-29T07:25:25.726Z,5.75
2023-01-29T07:30:28.109Z,5.80
2023-01-29T07:35:30.386Z,6.18
2023-01-29T07:40:32.403Z,6.10
2023-01-29T07:45:36.390Z,6.05
2023-01-29T07:50:39.507Z,6.13
2023-01-29T07:55:44.122Z,6.30
2023-01-29T08:00:46.204Z,6.45
2023-01-29T08:05:48.809Z,7.00
2023-01-29T08:10:50.866Z,6.68
2023-01-29T08:15:52.866Z,5.97
2023-01-29T08:21:02.494Z,6.57
2023-01-29T08:26:05.031Z,6.80
2023-01-29T08:31:14.709Z,6.00
2023-01-29T08:36:16.911Z,6.10
2023-01-29T08:41:18.949Z,6.30
2023-01-29T08:46:21.063Z,6.43
2023-01-29T08:51:25.519Z,5.50
2023-01-29T08:56:27.616Z,5.68
2023-01-29T09:01:30.255Z,5.40
2023-01-29T09:06:32.308Z,5.65
2023-01-29T09:11:34.313Z,4.88
2023-01-29T09:16:36.369Z,7.45
2023-01-29T09:21:38.439Z,7.57
2023-01-29T09:26:40.544Z,9.07
2023-01-29T09:31:42.739Z,8.25
2023-01-29T09:36:44.874Z,8.98
2023-01-29T09:42:20.016Z,8.25
2023-01-29T09:47:25.064Z,8.30
2023-01-29T09:52:46.573Z,6.90
2023-01-29T09:57:50.242Z,7.10
2023-01-29T10:03:29.895Z,9.63
2023-01-29T10:09:06.636Z,10.15
2023-01-29T10:14:14.912Z,9.55
2023-01-29T10:20:01.111Z,10.07
2023-01-29T10:25:11.785Z,10.20
2023-01-29T10:30:29.091Z,9.95
2023-01-29T10:35:39.364Z,8.82
2023-01-29T10:40:51.481Z,11.00
2023-01-29T10:46:30.392Z,9.95
2023-01-29T10:52:11.283Z,10.10
2023-01-29T10:57:47.230Z,9.38
2023-01-29T11:02:50.837Z,10.18
2023-01-29T11:08:05.333Z,8.25
2023-01-29T11:13:15.049Z,8.30
2023-01-29T11:18:17.201Z,8.13
2023-01-29T11:23:28.408Z,8.93
2023-01-29T11:28:41.975Z,9.68
2023-01-29T11:33:45.385Z,8.73
2023-01-29T11:38:47.460Z,9.65
2023-01-29T11:43:49.511Z,10.35
2023-01-29T11:48:58.934Z,8.18
2023-01-29T11:54:17.238Z,8.25
2023-01-29T11:59:44.335Z,7.55
2023-01-29T12:04:47.639Z,9.88
2023-01-29T12:09:55.788Z,9.30
2023-01-29T12:15:21.453Z,9.98
2023-01-29T12:20:30.794Z,7.43
2023-01-29T12:25:47.732Z,12.30
2023-01-29T12:31:08.573Z,9.10
2023-01-29T12:36:23.767Z,8.73
2023-01-29T12:41:32.672Z,8.60
2023-01-29T12:46:46.393Z,9.10
2023-01-29T12:52:11.461Z,8.80
2023-01-29T12:57:35.174Z,10.13
2023-01-29T13:03:04.762Z,9.25
2023-01-29T13:08:30.323Z,9.80
2023-01-29T13:13:38.287Z,9.17
2023-01-29T13:18:51.100Z,9.68
2023-01-29T13:24:00.483Z,9.15
2023-01-29T13:29:05.481Z,7.80
2023-01-29T13:34:12.539Z,9.43
2023-01-29T13:39:33.763Z,9.70
2023-01-29T13:44:40.471Z,8.52
2023-01-29T13:49:46.971Z,8.07
2023-01-29T13:55:04.150Z,8.73
2023-01-29T14:00:31.088Z,10.05
2023-01-29T14:05:39.812Z,9.60
2023-01-29T14:10:43.589Z,9.18
2023-01-29T14:15:57.777Z,9.23
2023-01-29T14:21:06.673Z,9.50
2023-01-29T14:26:29.982Z,8.52
2023-01-29T14:31:49.112Z,9.00
2023-01-29T14:36:55.606Z,9.13
2023-01-29T14:41:58.476Z,9.57
2023-01-29T14:47:00.592Z,9.57
2023-01-29T14:52:03.995Z,8.18
2023-01-29T14:57:12.618Z,8.00
2023-01-29T15:02:25.218Z,10.02
2023-01-29T15:07:54.990Z,9.38
2023-01-29T15:13:29.565Z,11.18
2023-01-29T15:18:40.978Z,10.00
2023-01-29T15:23:44.587Z,9.35
2023-01-29T15:29:04.204Z,9.30
2023-01-29T15:34:07.810Z,9.18
2023-01-29T15:39:09.814Z,10.45
2023-01-29T15:44:21.196Z,9.20
2023-01-29T15:49:32.833Z,9.50
2023-01-29T15:54:36.064Z,8.63
2023-01-29T15:59:43.690Z,9.32
2023-01-29T16:04:46.308Z,9.07
2023-01-29T16:09:50.185Z,8.52
2023-01-29T16:14:52.730Z,7.32
2023-01-29T16:20:02.741Z,8.00
2023-01-29T16:25:06.766Z,8.73
2023-01-29T16:30:10.853Z,8.88
2023-01-29T16:35:17.425Z,8.07
2023-01-29T16:40:34.493Z,7.93
2023-01-29T16:45:36.635Z,7.30
2023-01-29T16:50:53.840Z,6.93
2023-01-29T16:56:03.500Z,7.25
2023-01-29T17:01:10.167Z,7.05
2023-01-29T17:06:18.763Z,9.80
2023-01-29T17:11:30.094Z,7.43
2023-01-29T17:16:48.992Z,8.90
2023-01-29T17:21:51.275Z,7.57
2023-01-29T17:26:53.948Z,7.43
2023-01-29T17:31:56.371Z,7.28
2023-01-29T17:36:58.577Z,7.13
2023-01-29T17:42:01.423Z,7.65
2023-01-29T17:47:05.439Z,7.15
2023-01-29T17:52:08.130Z,6.95
2023-01-29T17:57:13.828Z,6.38
2023-01-29T18:02:29.553Z,6.53
2023-01-29T18:12:33.965Z,7.32
2023-01-29T18:17:36.236Z,7.88
2023-01-29T18:22:38.344Z,7.57
2023-01-29T18:27:40.520Z,8.55
2023-01-29T18:32:42.595Z,8.13
2023-01-29T18:37:44.759Z,8.50
2023-01-29T18:42:47.566Z,7.88
2023-01-29T18:47:49.860Z,8.55
2023-01-29T18:52:55.594Z,8.10
2023-01-29T18:58:35.006Z,7.00
2023-01-29T19:03:19.999Z,8.18
2023-01-29T19:08:22.142Z,7.97
2023-01-29T19:13:24.283Z,7.35
2023-01-29T19:18:27.641Z,6.38
2023-01-29T19:23:29.733Z,6.65
2023-01-29T19:28:32.210Z,7.13
2023-01-29T19:33:35.041Z,7.65
2023-01-29T19:38:38.799Z,7.20
2023-01-29T19:43:42.122Z,6.38
2023-01-29T19:48:45.593Z,6.85
2023-01-29T19:53:47.783Z,6.70
2023-01-29T19:58:49.940Z,6.53
2023-01-29T20:03:52.259Z,6.68
2023-01-29T20:08:54.424Z,6.88
2023-01-29T20:13:56.874Z,8.00
2023-01-29T20:19:13.269Z,8.27
2023-01-29T20:24:16.834Z,9.23
2023-01-29T20:29:19.010Z,7.95
2023-01-29T20:34:21.230Z,8.15
2023-01-29T20:39:23.471Z,7.63
2023-01-29T20:44:26.093Z,7.93
2023-01-29T20:49:28.599Z,7.43
2023-01-29T20:54:33.289Z,7.68
2023-01-29T20:59:35.644Z,7.17
2023-01-29T21:04:37.785Z,7.80
2023-01-29T21:09:39.948Z,7.30
2023-01-29T21:14:42.177Z,8.02
2023-01-29T21:19:44.345Z,6.30
2023-01-29T21:24:46.447Z,5.68
2023-01-29T21:29:48.685Z,7.18
2023-01-29T21:34:52.629Z,8.15
2023-01-29T21:39:54.898Z,8.70
2023-01-29T21:44:57.235Z,6.72
2023-01-29T21:49:59.340Z,5.45
2023-01-29T21:55:01.417Z,6.03
2023-01-29T22:00:04.260Z,6.82
2023-01-29T22:05:18.264Z,6.50
2023-01-29T22:10:22.513Z,6.35
2023-01-29T22:15:24.751Z,5.43
2023-01-29T22:20:30.771Z,4.70
2023-01-29T22:25:34.151Z,3.92
2023-01-29T22:30:36.535Z,3.70
2023-01-29T22:35:38.920Z,4.28
2023-01-29T22:40:40.998Z,4.82
2023-01-29T22:45:43.103Z,4.63
2023-01-29T22:50:53.747Z,5.63
2023-01-29T22:55:56.009Z,4.68
2023-01-29T23:00:58.176Z,5.15
2023-01-29T23:06:00.491Z,5.32
2023-01-29T23:11:14.203Z,5.03
2023-01-29T23:16:18.450Z,5.03
2023-01-29T23:21:22.766Z,5.10
2023-01-29T23:26:43.595Z,5.10
2023-01-29T23:31:45.918Z,4.45
2023-01-29T23:36:48.256Z,5.35
2023-01-29T23:41:50.358Z,5.68
2023-01-29T23:46:52.721Z,4.72
2023-01-29T23:51:54.985Z,4.32
2023-01-29T23:56:57.093Z,5.13
